Terminal Aerodrome Forecast
Issued by NWS Mt. Holly, NJ

Home | Current Version | Previous Version | Text Only | Print | Product List | Glossary On
Versions: 1 2 3 4 5 6 7 8 9 10 11 12 13 14 15 16 17 18 19 20 21 22 23 24 25
000
FTUS41 KPHI 141100
TAFTTN
TAF
KTTN 141125Z 1412/1512 23004KT P6SM SCT025 BKN040
     FM141300 25008KT P6SM SCT030 BKN120
     FM142000 23010KT P6SM SHRA BKN040
      TEMPO 1422/1501 3SM TSRA BKN025CB
     FM150400 21004KT 4SM BR SCT040 BKN120=

USA.gov is the U.S. government's official web portal to all federal, state and local government web resources and services.